createdAt,value
2017-11-05T00:00:16.938Z,999.6
2017-11-05T00:00:57.464Z,999.61
2017-11-05T00:01:37.999Z,999.61
2017-11-05T00:02:18.550Z,999.6
2017-11-05T00:02:59.136Z,999.56
2017-11-05T00:03:39.676Z,999.55
2017-11-05T00:04:20.201Z,999.55
2017-11-05T00:05:00.736Z,999.57
2017-11-05T00:05:41.325Z,999.58
2017-11-05T00:06:21.854Z,999.58
2017-11-05T00:07:02.372Z,999.49
2017-11-05T00:07:42.899Z,999.53
2017-11-05T00:08:23.431Z,999.54
2017-11-05T00:09:03.969Z,999.48
2017-11-05T00:09:44.496Z,999.48
2017-11-05T00:10:25.037Z,999.53
2017-11-05T00:11:05.547Z,999.51
2017-11-05T00:11:46.089Z,999.5
2017-11-05T00:12:26.627Z,999.49
2017-11-05T00:13:07.164Z,999.5
2017-11-05T00:13:47.711Z,999.5
2017-11-05T00:14:28.246Z,999.45
2017-11-05T00:15:08.788Z,999.47
2017-11-05T00:15:49.328Z,999.44
2017-11-05T00:16:29.866Z,999.43
2017-11-05T00:17:10.412Z,999.44
2017-11-05T00:17:50.941Z,999.46
2017-11-05T00:18:31.489Z,999.45
2017-11-05T00:19:12.014Z,999.46
2017-11-05T00:19:52.548Z,999.46
2017-11-05T00:20:33.076Z,999.45
2017-11-05T00:21:13.631Z,999.47
2017-11-05T00:21:54.149Z,999.48
2017-11-05T00:22:34.680Z,999.45
2017-11-05T00:23:15.218Z,999.49
2017-11-05T00:23:55.759Z,999.47
2017-11-05T00:24:36.297Z,999.48
2017-11-05T00:25:16.822Z,999.45
2017-11-05T00:25:57.360Z,999.48
2017-11-05T00:26:37.900Z,999.44
2017-11-05T00:27:18.431Z,999.45
2017-11-05T00:27:58.959Z,999.45
2017-11-05T00:28:39.499Z,999.42
2017-11-05T00:29:20.041Z,999.45
2017-11-05T00:30:00.570Z,999.44
2017-11-05T00:30:41.104Z,999.44
2017-11-05T00:31:21.634Z,999.46
2017-11-05T00:32:02.169Z,999.44
2017-11-05T00:32:42.693Z,999.42
2017-11-05T00:33:23.228Z,999.42
2017-11-05T00:34:03.744Z,999.42
2017-11-05T00:34:44.276Z,999.43
2017-11-05T00:35:24.814Z,999.43
2017-11-05T00:36:05.348Z,999.42
2017-11-05T00:36:45.872Z,999.43
2017-11-05T00:37:26.417Z,999.39
2017-11-05T00:38:06.951Z,999.4
2017-11-05T00:38:47.488Z,999.44
2017-11-05T00:39:28.089Z,999.38
2017-11-05T00:40:08.573Z,999.39
2017-11-05T00:40:49.111Z,999.46
2017-11-05T00:41:29.656Z,999.4
2017-11-05T00:42:10.203Z,999.4
2017-11-05T00:42:50.726Z,999.42
2017-11-05T00:43:31.263Z,999.38
2017-11-05T00:44:11.792Z,999.36
2017-11-05T00:44:52.341Z,999.38
2017-11-05T00:45:32.860Z,999.38
2017-11-05T00:46:13.385Z,999.38
2017-11-05T00:46:53.912Z,999.34
2017-11-05T00:47:34.449Z,999.38
2017-11-05T00:48:14.978Z,999.38
2017-11-05T00:48:55.515Z,999.38
2017-11-05T00:49:36.047Z,999.36
2017-11-05T00:50:16.579Z,999.37
2017-11-05T00:50:57.108Z,999.39
2017-11-05T00:51:37.638Z,999.38
2017-11-05T00:52:18.179Z,999.35
2017-11-05T00:52:58.716Z,999.39
2017-11-05T00:53:39.251Z,999.4
2017-11-05T00:54:19.791Z,999.37
2017-11-05T00:55:00.310Z,999.37
2017-11-05T00:55:40.855Z,999.36
2017-11-05T00:56:21.391Z,999.36
2017-11-05T00:57:01.930Z,999.38
2017-11-05T00:57:42.464Z,999.34
2017-11-05T00:58:22.989Z,999.35
2017-11-05T00:59:03.532Z,999.36
2017-11-05T00:59:44.057Z,999.33
2017-11-05T01:00:24.601Z,999.26
2017-11-05T01:01:05.134Z,999.25
2017-11-05T01:01:45.677Z,999.29
2017-11-05T01:02:26.226Z,999.26
2017-11-05T01:03:06.798Z,999.31
2017-11-05T01:03:47.339Z,999.3
2017-11-05T01:04:27.869Z,999.24
2017-11-05T01:05:08.407Z,999.28
2017-11-05T01:05:48.944Z,999.27
2017-11-05T01:06:29.477Z,999.28
2017-11-05T01:07:10.009Z,999.29
2017-11-05T01:07:50.546Z,999.25
2017-11-05T01:08:31.050Z,999.26
2017-11-05T01:09:11.595Z,999.27
2017-11-05T01:09:52.133Z,999.29
2017-11-05T01:10:32.660Z,999.3
2017-11-05T01:11:13.210Z,999.3
2017-11-05T01:11:53.723Z,999.27
2017-11-05T01:12:34.271Z,999.34
2017-11-05T01:13:14.799Z,999.35
2017-11-05T01:13:55.327Z,999.3
2017-11-05T01:14:35.855Z,999.35
2017-11-05T01:15:16.390Z,999.37
2017-11-05T01:15:56.922Z,999.37
2017-11-05T01:16:37.456Z,999.36
2017-11-05T01:17:17.989Z,999.32
2017-11-05T01:17:58.528Z,999.34
2017-11-05T01:18:39.052Z,999.32
2017-11-05T01:19:19.591Z,999.34
2017-11-05T01:20:00.132Z,999.3
2017-11-05T01:20:40.646Z,999.34
2017-11-05T01:21:21.184Z,999.32
2017-11-05T01:22:01.720Z,999.34
2017-11-05T01:22:42.254Z,999.3
2017-11-05T01:23:22.791Z,999.32
2017-11-05T01:24:03.321Z,999.34
2017-11-05T01:24:43.854Z,999.35
2017-11-05T01:25:24.390Z,999.37
2017-11-05T01:26:04.934Z,999.34
2017-11-05T01:26:45.474Z,999.3
2017-11-05T01:27:26.015Z,999.35
2017-11-05T01:28:06.553Z,999.33
2017-11-05T01:28:47.095Z,999.34
2017-11-05T01:29:27.626Z,999.33
2017-11-05T01:30:08.160Z,999.31
2017-11-05T01:30:48.693Z,999.35
2017-11-05T01:31:29.232Z,999.29
2017-11-05T01:32:09.766Z,999.3
2017-11-05T01:32:50.347Z,999.28
2017-11-05T01:33:30.879Z,999.23
2017-11-05T01:34:11.420Z,999.25
2017-11-05T01:34:51.949Z,999.23
2017-11-05T01:35:32.494Z,999.23
2017-11-05T01:36:13.019Z,999.25
2017-11-05T01:36:53.593Z,999.2
2017-11-05T01:37:34.114Z,999.26
2017-11-05T01:38:14.646Z,999.21
2017-11-05T01:38:55.189Z,999.22
2017-11-05T01:39:35.720Z,999.25
2017-11-05T01:40:16.256Z,999.25
2017-11-05T01:40:56.780Z,999.23
2017-11-05T01:41:37.299Z,999.22
2017-11-05T01:42:17.836Z,999.23
2017-11-05T01:42:58.375Z,999.21
2017-11-05T01:43:38.913Z,999.2
2017-11-05T01:44:19.447Z,999.21
2017-11-05T01:44:59.976Z,999.21
2017-11-05T01:45:40.508Z,999.18
2017-11-05T01:46:21.047Z,999.18
2017-11-05T01:47:01.584Z,999.19
2017-11-05T01:47:42.140Z,999.17
2017-11-05T01:48:22.653Z,999.18
2017-11-05T01:49:03.178Z,999.17
2017-11-05T01:49:43.719Z,999.17
2017-11-05T01:50:24.254Z,999.18
2017-11-05T01:51:04.792Z,999.16
2017-11-05T01:51:45.344Z,999.16
2017-11-05T01:52:25.865Z,999.17
2017-11-05T01:53:06.406Z,999.21
2017-11-05T01:53:46.934Z,999.21
2017-11-05T01:54:27.476Z,999.16
2017-11-05T01:55:08.008Z,999.19
2017-11-05T01:55:48.552Z,999.19
2017-11-05T01:56:29.084Z,999.15
2017-11-05T01:57:09.633Z,999.14
2017-11-05T01:57:50.160Z,999.11
2017-11-05T01:58:30.686Z,999.09
2017-11-05T01:59:11.229Z,999.07
2017-11-05T01:59:51.765Z,999.07
2017-11-05T02:00:32.306Z,999.06
2017-11-05T02:01:12.897Z,999.05
2017-11-05T02:01:53.444Z,999.09
2017-11-05T02:02:33.972Z,999.05
2017-11-05T02:03:14.509Z,999.08
2017-11-05T02:03:55.050Z,999.06
2017-11-05T02:04:35.585Z,999.11
2017-11-05T02:05:16.127Z,999.05
2017-11-05T02:05:56.669Z,999.07
2017-11-05T02:06:37.204Z,999.05
2017-11-05T02:07:17.738Z,999.08
2017-11-05T02:07:58.276Z,999.1
2017-11-05T02:08:38.813Z,999.05
2017-11-05T02:09:19.344Z,999.09
2017-11-05T02:09:59.881Z,999.07
2017-11-05T02:10:40.401Z,999.09
2017-11-05T02:11:20.934Z,999.08
2017-11-05T02:12:01.477Z,999.09
2017-11-05T02:12:42.014Z,999.07
2017-11-05T02:13:22.545Z,999.05
2017-11-05T02:14:03.084Z,999.01
2017-11-05T02:14:43.618Z,999.05
2017-11-05T02:15:24.161Z,999
2017-11-05T02:16:04.686Z,999.01
2017-11-05T02:16:45.212Z,999.02
2017-11-05T02:17:25.749Z,999.02
2017-11-05T02:18:06.291Z,999.03
2017-11-05T02:18:46.822Z,999.05
2017-11-05T02:19:27.346Z,999.05
2017-11-05T02:20:07.889Z,999.02
2017-11-05T02:20:48.425Z,999.06
2017-11-05T02:21:28.966Z,999.07
2017-11-05T02:22:09.513Z,999.11
2017-11-05T02:22:50.056Z,999.09
2017-11-05T02:23:30.593Z,999.12
2017-11-05T02:24:11.137Z,999.1
2017-11-05T02:24:51.677Z,999.13
2017-11-05T02:25:32.209Z,999.12
2017-11-05T02:26:12.745Z,999.14
2017-11-05T02:26:53.272Z,999.19
2017-11-05T02:27:33.810Z,999.19
2017-11-05T02:28:14.347Z,999.22
2017-11-05T02:28:54.892Z,999.25
2017-11-05T02:29:35.425Z,999.21
2017-11-05T02:30:15.964Z,999.2
2017-11-05T02:30:56.502Z,999.24
2017-11-05T02:31:37.042Z,999.22
2017-11-05T02:32:17.582Z,999.3
2017-11-05T02:32:58.113Z,999.29
2017-11-05T02:33:38.653Z,999.24
2017-11-05T02:34:19.190Z,999.26
2017-11-05T02:34:59.713Z,999.27
2017-11-05T02:35:40.244Z,999.27
2017-11-05T02:36:20.784Z,999.26
2017-11-05T02:37:01.328Z,999.28
2017-11-05T02:37:41.869Z,999.24
2017-11-05T02:38:22.410Z,999.23
2017-11-05T02:39:02.938Z,999.27
2017-11-05T02:39:43.460Z,999.3
2017-11-05T02:40:23.999Z,999.25
2017-11-05T02:41:04.536Z,999.25
2017-11-05T02:41:45.095Z,999.21
2017-11-05T02:42:25.598Z,999.21
2017-11-05T02:43:06.116Z,999.23
2017-11-05T02:43:46.629Z,999.2
2017-11-05T02:44:27.166Z,999.24
2017-11-05T02:45:07.698Z,999.27
2017-11-05T02:45:48.216Z,999.23
2017-11-05T02:46:28.754Z,999.3
2017-11-05T02:47:09.296Z,999.31
2017-11-05T02:47:49.832Z,999.3
2017-11-05T02:48:30.374Z,999.33
2017-11-05T02:49:10.913Z,999.35
2017-11-05T02:49:51.448Z,999.35
2017-11-05T02:50:31.976Z,999.3
2017-11-05T02:51:12.510Z,999.28
2017-11-05T02:51:53.037Z,999.24
2017-11-05T02:52:33.590Z,999.25
2017-11-05T02:53:14.117Z,999.16
2017-11-05T02:53:54.655Z,999.17
2017-11-05T02:54:35.187Z,999.11
2017-11-05T02:55:15.702Z,999.14
2017-11-05T02:55:56.245Z,999.14
2017-11-05T02:56:36.774Z,999.15
2017-11-05T02:57:17.302Z,999.13
2017-11-05T02:57:57.829Z,999.2
2017-11-05T02:58:38.376Z,999.17
2017-11-05T02:59:18.905Z,999.12
2017-11-05T02:59:59.434Z,999.12
2017-11-05T03:00:39.968Z,999.15
2017-11-05T03:01:20.504Z,999.14
2017-11-05T03:02:01.027Z,999.14
2017-11-05T03:02:41.553Z,999.17
2017-11-05T03:03:22.080Z,999.15
2017-11-05T03:04:02.625Z,999.15
2017-11-05T03:04:43.158Z,999.17
2017-11-05T03:05:23.690Z,999.2
2017-11-05T03:06:04.224Z,999.19
2017-11-05T03:06:44.771Z,999.19
2017-11-05T03:07:25.299Z,999.13
2017-11-05T03:08:05.830Z,999.13
2017-11-05T03:08:46.364Z,999.13
2017-11-05T03:09:26.906Z,999.14
2017-11-05T03:10:07.439Z,999.14
2017-11-05T03:10:47.975Z,999.13
2017-11-05T03:11:28.525Z,999.14
2017-11-05T03:12:09.055Z,999.13
2017-11-05T03:12:49.592Z,999.16
2017-11-05T03:13:30.114Z,999.13
2017-11-05T03:14:10.644Z,999.17
2017-11-05T03:14:51.176Z,999.14
2017-11-05T03:15:31.758Z,999.12
2017-11-05T03:16:12.292Z,999.15
2017-11-05T03:16:52.843Z,999.15
2017-11-05T03:17:33.353Z,999.12
2017-11-05T03:18:13.885Z,999.08
2017-11-05T03:18:54.423Z,999.06
2017-11-05T03:19:34.960Z,999.06
2017-11-05T03:20:15.479Z,999.05
2017-11-05T03:20:56.023Z,999.07
2017-11-05T03:21:36.553Z,999.08
2017-11-05T03:22:17.089Z,999.04
2017-11-05T03:22:57.629Z,999.04
2017-11-05T03:23:38.155Z,999.05
2017-11-05T03:24:18.697Z,998.99
2017-11-05T03:24:59.218Z,999
2017-11-05T03:25:39.755Z,999.04
2017-11-05T03:26:20.292Z,999.03
2017-11-05T03:27:00.829Z,999.03
2017-11-05T03:27:41.354Z,999.02
2017-11-05T03:28:21.893Z,999
2017-11-05T03:29:02.422Z,999.01
2017-11-05T03:29:42.956Z,999.02
2017-11-05T03:30:23.494Z,999.01
2017-11-05T03:31:04.034Z,998.97
2017-11-05T03:31:44.574Z,999.02
2017-11-05T03:32:25.105Z,999.01
2017-11-05T03:33:05.653Z,999
2017-11-05T03:33:46.189Z,999
2017-11-05T03:34:26.725Z,999.01
2017-11-05T03:35:07.265Z,999.01
2017-11-05T03:35:47.807Z,999
2017-11-05T03:36:28.341Z,999.02
2017-11-05T03:37:08.883Z,998.99
2017-11-05T03:37:49.399Z,999.03
2017-11-05T03:38:29.926Z,999.02
2017-11-05T03:39:10.479Z,999.02
2017-11-05T03:39:51.011Z,998.99
2017-11-05T03:40:31.550Z,999.04
2017-11-05T03:41:12.067Z,999.01
2017-11-05T03:41:52.607Z,999.02
2017-11-05T03:42:33.127Z,999.05
2017-11-05T03:43:13.716Z,999
2017-11-05T03:43:54.233Z,999.06
2017-11-05T03:44:34.768Z,999.04
2017-11-05T03:45:15.303Z,999.02
2017-11-05T03:45:55.836Z,999.03
2017-11-05T03:46:36.350Z,999.05
2017-11-05T03:47:16.878Z,999.05
2017-11-05T03:47:57.399Z,999.03
2017-11-05T03:48:37.926Z,999.07
2017-11-05T03:49:18.443Z,999.08
2017-11-05T03:49:58.978Z,999.06
2017-11-05T03:50:39.512Z,999.07
2017-11-05T03:51:20.049Z,999.07
2017-11-05T03:52:00.586Z,999.04
2017-11-05T03:52:41.106Z,999.05
2017-11-05T03:53:21.633Z,999.05
2017-11-05T03:54:02.173Z,999.05
2017-11-05T03:54:42.715Z,999.07
2017-11-05T03:55:23.225Z,999.07
2017-11-05T03:56:03.756Z,999.05
2017-11-05T03:56:44.299Z,999.02
2017-11-05T03:57:24.840Z,999.03
2017-11-05T03:58:05.378Z,999.04
2017-11-05T03:58:45.916Z,999
2017-11-05T03:59:26.458Z,999.01
2017-11-05T04:00:06.994Z,999
2017-11-05T04:00:47.507Z,999.02
2017-11-05T04:01:28.037Z,999.01
2017-11-05T04:02:08.585Z,999.05
2017-11-05T04:02:49.115Z,999.1
2017-11-05T04:03:29.656Z,999.11
2017-11-05T04:04:10.179Z,999.12
2017-11-05T04:04:50.704Z,999.11
2017-11-05T04:05:31.243Z,999.09
2017-11-05T04:06:11.790Z,999.09
2017-11-05T04:06:52.322Z,999.08
2017-11-05T04:07:32.863Z,999.1
2017-11-05T04:08:13.380Z,999.11
2017-11-05T04:08:53.898Z,999.09
2017-11-05T04:09:34.410Z,999.08
2017-11-05T04:10:14.944Z,999.08
2017-11-05T04:10:55.466Z,999.12
2017-11-05T04:11:36.002Z,999.08
2017-11-05T04:12:16.525Z,999.08
2017-11-05T04:12:57.071Z,999.08
2017-11-05T04:13:37.593Z,999.1
2017-11-05T04:14:18.125Z,999.08
2017-11-05T04:14:58.659Z,999.08
2017-11-05T04:15:39.190Z,999.06
2017-11-05T04:16:19.713Z,999.03
2017-11-05T04:17:00.244Z,999.01
2017-11-05T04:17:40.816Z,999.02
2017-11-05T04:18:21.345Z,999.02
2017-11-05T04:19:01.863Z,999.01
2017-11-05T04:19:42.404Z,999.03
2017-11-05T04:20:22.933Z,999.02
2017-11-05T04:21:03.473Z,999.02
2017-11-05T04:21:44.001Z,999.03
2017-11-05T04:22:24.538Z,999.02
2017-11-05T04:23:05.073Z,999.02
2017-11-05T04:23:45.584Z,999.03
2017-11-05T04:24:26.097Z,999.03
2017-11-05T04:25:06.625Z,999.01
2017-11-05T04:25:47.149Z,999.03
2017-11-05T04:26:27.696Z,999.05
2017-11-05T04:27:08.195Z,999.04
2017-11-05T04:27:48.706Z,999.02
2017-11-05T04:28:29.242Z,999.02
2017-11-05T04:29:09.763Z,999.01
2017-11-05T04:29:50.277Z,998.98
2017-11-05T04:30:30.798Z,998.97
2017-11-05T04:31:11.331Z,999
2017-11-05T04:31:51.843Z,998.97
2017-11-05T04:32:32.361Z,998.94
2017-11-05T04:33:12.883Z,998.95
2017-11-05T04:33:53.422Z,998.99
2017-11-05T04:34:33.960Z,998.96
2017-11-05T04:35:14.496Z,998.96
2017-11-05T04:35:55.017Z,998.96
2017-11-05T04:36:35.555Z,998.97
2017-11-05T04:37:16.083Z,998.97
2017-11-05T04:37:56.623Z,998.96
2017-11-05T04:38:37.159Z,998.96
2017-11-05T04:39:17.735Z,998.95
2017-11-05T04:39:58.235Z,998.98
2017-11-05T04:40:38.766Z,998.99
2017-11-05T04:41:19.287Z,998.98
2017-11-05T04:41:59.809Z,998.98
2017-11-05T04:42:40.324Z,998.99
2017-11-05T04:43:20.863Z,999
2017-11-05T04:44:01.405Z,999.01
2017-11-05T04:44:41.944Z,999.03
2017-11-05T04:45:22.480Z,999
2017-11-05T04:46:03.004Z,999.06
2017-11-05T04:46:43.517Z,999.03
2017-11-05T04:47:24.041Z,999.05
2017-11-05T04:48:04.555Z,999.07
2017-11-05T04:48:45.061Z,999.06
2017-11-05T04:49:25.568Z,999.08
2017-11-05T04:50:06.088Z,999.07
2017-11-05T04:50:46.622Z,999.06
2017-11-05T04:51:27.167Z,999.07
2017-11-05T04:52:07.704Z,999.05
2017-11-05T04:52:48.246Z,999.06
2017-11-05T04:53:28.781Z,999.08
2017-11-05T04:54:09.323Z,999.06
2017-11-05T04:54:49.841Z,999.04
2017-11-05T04:55:30.370Z,999.06
2017-11-05T04:56:10.904Z,999.05
2017-11-05T04:56:51.422Z,999.06
2017-11-05T04:57:31.933Z,999.09
2017-11-05T04:58:12.462Z,999.08
2017-11-05T04:58:52.966Z,999.08
2017-11-05T04:59:33.492Z,999.09
2017-11-05T05:00:14.019Z,999.08
2017-11-05T05:00:54.533Z,999.09
2017-11-05T05:01:35.069Z,999.12
2017-11-05T05:02:15.625Z,999.11
2017-11-05T05:02:56.145Z,999.14
2017-11-05T05:03:36.677Z,999.15
2017-11-05T05:04:17.209Z,999.12
2017-11-05T05:04:57.744Z,999.13
2017-11-05T05:05:38.256Z,999.15
2017-11-05T05:06:18.786Z,999.12
2017-11-05T05:06:59.292Z,999.1
2017-11-05T05:07:39.826Z,999.12
2017-11-05T05:08:20.343Z,999.09
2017-11-05T05:09:00.867Z,999.14
2017-11-05T05:09:41.389Z,999.12
2017-11-05T05:10:21.920Z,999.12
2017-11-05T05:11:02.451Z,999.13
2017-11-05T05:11:42.949Z,999.15
2017-11-05T05:12:23.474Z,999.21
2017-11-05T05:13:04.022Z,999.22
2017-11-05T05:13:44.530Z,999.23
2017-11-05T05:14:25.081Z,999.23
2017-11-05T05:15:05.615Z,999.35
2017-11-05T05:15:46.164Z,999.23
2017-11-05T05:16:26.672Z,999.28
2017-11-05T05:17:07.210Z,999.28
2017-11-05T05:17:47.731Z,999.27
2017-11-05T05:18:28.270Z,999.29
2017-11-05T05:19:08.792Z,999.35
2017-11-05T05:19:49.324Z,999.29
2017-11-05T05:20:29.850Z,999.32
2017-11-05T05:21:10.386Z,999.33
2017-11-05T05:21:50.910Z,999.32
2017-11-05T05:22:31.450Z,999.31
2017-11-05T05:23:11.976Z,999.34
2017-11-05T05:23:52.507Z,999.33
2017-11-05T05:24:33.041Z,999.35
2017-11-05T05:25:13.578Z,999.33
2017-11-05T05:25:54.113Z,999.33
2017-11-05T05:26:34.636Z,999.31
2017-11-05T05:27:15.171Z,999.3
2017-11-05T05:27:55.705Z,999.36
2017-11-05T05:28:36.238Z,999.34
2017-11-05T05:29:16.775Z,999.36
2017-11-05T05:29:57.315Z,999.41
2017-11-05T05:30:37.846Z,999.39
2017-11-05T05:31:18.372Z,999.39
2017-11-05T05:31:58.902Z,999.38
2017-11-05T05:32:39.432Z,999.39
2017-11-05T05:33:19.976Z,999.4
2017-11-05T05:34:00.486Z,999.37
2017-11-05T05:34:41.032Z,999.45
2017-11-05T05:35:21.555Z,999.42
2017-11-05T05:36:02.083Z,999.43
2017-11-05T05:36:42.604Z,999.45
2017-11-05T05:37:23.132Z,999.48
2017-11-05T05:38:03.665Z,999.54
2017-11-05T05:38:44.208Z,999.5
2017-11-05T05:39:24.743Z,999.54
2017-11-05T05:40:05.273Z,999.62
2017-11-05T05:40:45.802Z,999.52
2017-11-05T05:41:26.355Z,999.59
2017-11-05T05:42:06.883Z,999.51
2017-11-05T05:42:47.450Z,999.6
2017-11-05T05:43:27.981Z,999.61
2017-11-05T05:44:08.517Z,999.56
2017-11-05T05:44:49.055Z,999.59
2017-11-05T05:45:29.582Z,999.67
2017-11-05T05:46:10.114Z,999.63
2017-11-05T05:46:50.646Z,999.68
2017-11-05T05:47:31.187Z,999.71
2017-11-05T05:48:11.713Z,999.76
2017-11-05T05:48:52.245Z,999.78
2017-11-05T05:49:32.774Z,999.73
2017-11-05T05:50:13.310Z,999.72
2017-11-05T05:50:53.830Z,999.81
2017-11-05T05:51:34.376Z,999.83
2017-11-05T05:52:14.912Z,999.85
2017-11-05T05:52:55.434Z,999.87
2017-11-05T05:53:35.965Z,999.89
2017-11-05T05:54:16.501Z,999.88
2017-11-05T05:54:57.032Z,999.86
2017-11-05T05:55:37.557Z,999.88
2017-11-05T05:56:18.102Z,999.9
2017-11-05T05:56:58.627Z,999.94
2017-11-05T05:57:39.166Z,999.94
2017-11-05T05:58:19.707Z,999.94
2017-11-05T05:59:00.235Z,999.99
2017-11-05T05:59:40.743Z,1000.01
2017-11-05T06:00:21.285Z,999.97
2017-11-05T06:01:01.808Z,1000.01
2017-11-05T06:01:42.439Z,1000.02
2017-11-05T06:02:22.972Z,1000.01
2017-11-05T06:03:03.509Z,1000.03
2017-11-05T06:03:44.048Z,1000.1
2017-11-05T06:04:24.589Z,1000.11
2017-11-05T06:05:05.131Z,1000.11
2017-11-05T06:05:45.661Z,1000.14
2017-11-05T06:06:26.187Z,1000.13
2017-11-05T06:07:06.725Z,1000.14
2017-11-05T06:07:47.250Z,1000.16
2017-11-05T06:08:27.760Z,1000.16
2017-11-05T06:09:08.292Z,1000.19
2017-11-05T06:09:48.824Z,1000.19
2017-11-05T06:10:29.354Z,1000.21
2017-11-05T06:11:09.897Z,1000.23
2017-11-05T06:11:50.430Z,1000.23
2017-11-05T06:12:30.958Z,1000.27
2017-11-05T06:13:11.489Z,1000.24
2017-11-05T06:13:52.021Z,1000.21
2017-11-05T06:14:32.547Z,1000.26
2017-11-05T06:15:13.104Z,1000.3
2017-11-05T06:15:53.618Z,1000.29
2017-11-05T06:16:34.170Z,1000.27
2017-11-05T06:17:14.685Z,1000.27
2017-11-05T06:17:55.224Z,1000.27
2017-11-05T06:18:35.754Z,1000.28
2017-11-05T06:19:16.278Z,1000.28
2017-11-05T06:19:56.800Z,1000.29
2017-11-05T06:20:37.347Z,1000.3
2017-11-05T06:21:17.872Z,1000.32
2017-11-05T06:21:58.411Z,1000.27
2017-11-05T06:22:38.945Z,1000.3
2017-11-05T06:23:19.476Z,1000.35
2017-11-05T06:24:00.016Z,1000.39
2017-11-05T06:24:40.548Z,1000.45
2017-11-05T06:25:21.086Z,1000.41
2017-11-05T06:26:01.621Z,1000.39
2017-11-05T06:26:42.155Z,1000.44
2017-11-05T06:27:22.681Z,1000.39
2017-11-05T06:28:03.214Z,1000.44
2017-11-05T06:28:43.742Z,1000.44
2017-11-05T06:29:24.303Z,1000.5
2017-11-05T06:30:04.846Z,1000.49
2017-11-05T06:30:45.378Z,1000.52
2017-11-05T06:31:25.902Z,1000.57
2017-11-05T06:32:06.436Z,1000.56
2017-11-05T06:32:46.970Z,1000.58
2017-11-05T06:33:27.493Z,1000.57
2017-11-05T06:34:08.036Z,1000.57
2017-11-05T06:34:48.572Z,1000.64
2017-11-05T06:35:29.129Z,1000.59
2017-11-05T06:36:09.661Z,1000.65
2017-11-05T06:36:50.201Z,1000.66
2017-11-05T06:37:30.734Z,1000.75
2017-11-05T06:38:11.270Z,1000.76
2017-11-05T06:38:51.808Z,1000.76
2017-11-05T06:39:32.335Z,1000.73
2017-11-05T06:40:12.873Z,1000.76
2017-11-05T06:40:53.403Z,1000.69
2017-11-05T06:41:33.925Z,1000.78
2017-11-05T06:42:14.471Z,1000.75
2017-11-05T06:42:54.994Z,1000.8
2017-11-05T06:43:35.528Z,1000.72
2017-11-05T06:44:16.072Z,1000.75
2017-11-05T06:44:56.580Z,1000.78
2017-11-05T06:45:37.116Z,1000.74
2017-11-05T06:46:17.653Z,1000.8
2017-11-05T06:46:58.200Z,1000.8
2017-11-05T06:47:38.726Z,1000.79
2017-11-05T06:48:19.261Z,1000.83
2017-11-05T06:48:59.804Z,1000.88
2017-11-05T06:49:40.333Z,1000.83
2017-11-05T06:50:20.862Z,1000.89
2017-11-05T06:51:01.399Z,1000.92
2017-11-05T06:51:41.934Z,1000.92
2017-11-05T06:52:22.455Z,1000.93
2017-11-05T06:53:02.987Z,1000.97
2017-11-05T06:53:43.553Z,1000.96
2017-11-05T06:54:24.050Z,1000.98
2017-11-05T06:55:04.589Z,1000.98
2017-11-05T06:55:45.116Z,1001.03
2017-11-05T06:56:25.662Z,1001.02
2017-11-05T06:57:06.185Z,1001.09
2017-11-05T06:57:46.734Z,1001.1
2017-11-05T06:58:27.248Z,1001.09
2017-11-05T06:59:07.772Z,1001.07
2017-11-05T06:59:48.308Z,1001.09
2017-11-05T07:00:28.841Z,1001.07
2017-11-05T07:01:09.375Z,1001.11
2017-11-05T07:01:49.909Z,1001.1
2017-11-05T07:02:30.440Z,1001.16
2017-11-05T07:03:10.987Z,1001.17
2017-11-05T07:03:51.523Z,1001.17
2017-11-05T07:04:32.059Z,1001.16
2017-11-05T07:05:12.592Z,1001.17
2017-11-05T07:05:53.127Z,1001.14
2017-11-05T07:06:33.669Z,1001.15
2017-11-05T07:07:14.201Z,1001.17
2017-11-05T07:07:54.740Z,1001.14
2017-11-05T07:08:35.276Z,1001.22
2017-11-05T07:09:15.878Z,1001.21
2017-11-05T07:09:56.420Z,1001.23
2017-11-05T07:10:36.960Z,1001.21
2017-11-05T07:11:17.499Z,1001.25
2017-11-05T07:11:58.039Z,1001.26
2017-11-05T07:12:38.572Z,1001.26
2017-11-05T07:13:19.115Z,1001.28
2017-11-05T07:13:59.652Z,1001.26
2017-11-05T07:14:40.180Z,1001.29
2017-11-05T07:15:20.720Z,1001.23
2017-11-05T07:16:01.256Z,1001.25
2017-11-05T07:16:41.793Z,1001.32
2017-11-05T07:17:22.335Z,1001.28
2017-11-05T07:18:02.851Z,1001.34
2017-11-05T07:18:43.366Z,1001.34
2017-11-05T07:19:23.901Z,1001.36
2017-11-05T07:20:04.433Z,1001.41
2017-11-05T07:20:44.955Z,1001.42
2017-11-05T07:21:25.492Z,1001.45
2017-11-05T07:22:06.025Z,1001.5
2017-11-05T07:22:46.578Z,1001.53
2017-11-05T07:23:27.107Z,1001.55
2017-11-05T07:24:07.647Z,1001.55
2017-11-05T07:24:48.171Z,1001.58
2017-11-05T07:25:28.695Z,1001.56
2017-11-05T07:26:09.224Z,1001.54
2017-11-05T07:26:49.768Z,1001.56
2017-11-05T07:27:30.305Z,1001.59
2017-11-05T07:28:10.835Z,1001.6
2017-11-05T07:28:51.362Z,1001.6
2017-11-05T07:29:31.899Z,1001.6
2017-11-05T07:30:12.437Z,1001.6
2017-11-05T07:30:52.995Z,1001.56
2017-11-05T07:31:33.613Z,1001.62
2017-11-05T07:32:14.275Z,1001.6
2017-11-05T07:32:54.910Z,1001.62
2017-11-05T07:33:35.526Z,1001.63
2017-11-05T07:34:16.095Z,1001.65
2017-11-05T07:34:56.712Z,1001.64
2017-11-05T07:35:37.212Z,1001.65
2017-11-05T07:36:17.725Z,1001.66
2017-11-05T07:36:58.346Z,1001.68
2017-11-05T07:37:39.040Z,1001.65
2017-11-05T07:38:19.590Z,1001.69
2017-11-05T07:39:00.115Z,1001.7
2017-11-05T07:39:40.677Z,1001.7
2017-11-05T07:40:21.453Z,1001.7
2017-11-05T07:41:01.962Z,1001.75
2017-11-05T07:41:42.657Z,1001.76
2017-11-05T07:42:23.198Z,1001.75
2017-11-05T07:43:03.715Z,1001.79
2017-11-05T07:43:44.292Z,1001.79
2017-11-05T07:44:24.824Z,1001.8
2017-11-05T07:45:05.455Z,1001.78
2017-11-05T07:45:46.118Z,1001.82
2017-11-05T07:46:26.828Z,1001.83
2017-11-05T07:47:07.356Z,1001.86
2017-11-05T07:47:48.089Z,1001.89
2017-11-05T07:48:28.616Z,1001.9
2017-11-05T07:49:09.181Z,1001.89
2017-11-05T07:49:49.861Z,1001.9
2017-11-05T07:50:30.462Z,1001.89
2017-11-05T07:51:11.016Z,1001.85
2017-11-05T07:51:51.742Z,1001.87
2017-11-05T07:52:32.268Z,1001.89
2017-11-05T07:53:12.892Z,1001.86
2017-11-05T07:53:53.554Z,1001.88
2017-11-05T07:54:34.092Z,1001.87
2017-11-05T07:55:14.898Z,1001.89
2017-11-05T07:55:55.550Z,1001.85
2017-11-05T07:56:36.514Z,1001.89
2017-11-05T07:57:17.130Z,1001.87
2017-11-05T07:57:57.865Z,1001.9
2017-11-05T07:58:38.412Z,1001.86
2017-11-05T07:59:18.930Z,1001.86
2017-11-05T07:59:59.487Z,1001.83
2017-11-05T08:00:40.015Z,1001.86
2017-11-05T08:01:20.649Z,1001.85
2017-11-05T08:02:01.169Z,1001.83
2017-11-05T08:02:41.728Z,1001.85
2017-11-05T08:03:22.251Z,1001.83
2017-11-05T08:04:02.837Z,1001.85
2017-11-05T08:04:43.360Z,1001.85
2017-11-05T08:05:23.874Z,1001.83
2017-11-05T08:06:04.522Z,1001.87
2017-11-05T08:06:45.015Z,1001.86
2017-11-05T08:07:26.303Z,1001.89
2017-11-05T08:08:07.000Z,1001.88
2017-11-05T08:08:47.682Z,1001.89
2017-11-05T08:09:28.205Z,1001.93
2017-11-05T08:10:08.746Z,1001.96
2017-11-05T08:10:49.417Z,1001.97
2017-11-05T08:11:30.051Z,1001.96
2017-11-05T08:12:10.711Z,1001.91
2017-11-05T08:12:51.327Z,1001.93
2017-11-05T08:13:31.909Z,1001.91
2017-11-05T08:14:12.537Z,1001.86
2017-11-05T08:14:53.895Z,1001.87
2017-11-05T08:15:35.022Z,1001.9
2017-11-05T08:16:17.987Z,1001.89
2017-11-05T08:18:20.020Z,1001.93
2017-11-05T08:19:04.290Z,1001.97
2017-11-05T08:19:45.108Z,1001.91
2017-11-05T08:20:27.429Z,1001.95
2017-11-05T08:21:08.055Z,1001.94
2017-11-05T08:21:48.667Z,1001.99
2017-11-05T08:22:29.166Z,1001.97
2017-11-05T08:23:09.698Z,1001.96
2017-11-05T08:23:50.226Z,1001.97
2017-11-05T08:24:30.759Z,1001.97